sensor_id;sensor_type;location;lat;lon;timestamp;temperature;humidity
42841;DHT22;28491;46.898;7.660;2023-05-15T00:01:16;8.70;99.90
42841;DHT22;28491;46.898;7.660;2023-05-15T00:03:41;8.70;99.90
42841;DHT22;28491;46.898;7.660;2023-05-15T00:06:07;8.60;99.90
42841;DHT22;28491;46.898;7.660;2023-05-15T00:08:33;8.60;99.90
42841;DHT22;28491;46.898;7.660;2023-05-15T00:10:58;8.60;99.90
42841;DHT22;28491;46.898;7.660;2023-05-15T00:13:24;8.50;99.90
42841;DHT22;28491;46.898;7.660;2023-05-15T00:15:49;8.50;99.90
42841;DHT22;28491;46.898;7.660;2023-05-15T00:18:15;8.50;99.90
42841;DHT22;28491;46.898;7.660;2023-05-15T00:20:40;8.50;99.90
42841;DHT22;28491;46.898;7.660;2023-05-15T00:23:06;8.40;99.90
42841;DHT22;28491;46.898;7.660;2023-05-15T00:25:32;8.40;99.90
42841;DHT22;28491;46.898;7.660;2023-05-15T00:27:57;8.50;99.90
42841;DHT22;28491;46.898;7.660;2023-05-15T00:30:23;8.50;99.90
42841;DHT22;28491;46.898;7.660;2023-05-15T00:32:48;8.40;99.90
42841;DHT22;28491;46.898;7.660;2023-05-15T00:35:14;8.40;99.90
42841;DHT22;28491;46.898;7.660;2023-05-15T00:37:39;8.50;99.90
42841;DHT22;28491;46.898;7.660;2023-05-15T00:40:06;8.50;99.90
42841;DHT22;28491;46.898;7.660;2023-05-15T00:42:34;8.50;99.90
42841;DHT22;28491;46.898;7.660;2023-05-15T00:45:00;8.50;99.90
42841;DHT22;28491;46.898;7.660;2023-05-15T00:47:26;8.50;99.90
42841;DHT22;28491;46.898;7.660;2023-05-15T00:49:52;8.50;99.90
42841;DHT22;28491;46.898;7.660;2023-05-15T00:52:19;8.50;99.90
42841;DHT22;28491;46.898;7.660;2023-05-15T00:54:44;8.50;99.90
42841;DHT22;28491;46.898;7.660;2023-05-15T00:57:10;8.50;99.90
42841;DHT22;28491;46.898;7.660;2023-05-15T00:59:38;8.50;99.90
42841;DHT22;28491;46.898;7.660;2023-05-15T01:02:04;8.50;99.90
42841;DHT22;28491;46.898;7.660;2023-05-15T01:04:29;8.50;99.90
42841;DHT22;28491;46.898;7.660;2023-05-15T01:06:55;8.50;99.90
42841;DHT22;28491;46.898;7.660;2023-05-15T01:09:24;8.40;99.90
42841;DHT22;28491;46.898;7.660;2023-05-15T01:11:53;8.40;99.90
42841;DHT22;28491;46.898;7.660;2023-05-15T01:14:19;8.40;99.90
42841;DHT22;28491;46.898;7.660;2023-05-15T01:16:44;8.40;99.90
42841;DHT22;28491;46.898;7.660;2023-05-15T01:19:10;8.40;99.90
42841;DHT22;28491;46.898;7.660;2023-05-15T01:27:34;8.40;99.90
42841;DHT22;28491;46.898;7.660;2023-05-15T01:30:11;8.50;99.90
42841;DHT22;28491;46.898;7.660;2023-05-15T01:37:59;8.50;99.90
42841;DHT22;28491;46.898;7.660;2023-05-15T01:40:27;8.50;99.90
42841;DHT22;28491;46.898;7.660;2023-05-15T01:42:55;8.50;99.90
42841;DHT22;28491;46.898;7.660;2023-05-15T01:45:24;8.50;99.90
42841;DHT22;28491;46.898;7.660;2023-05-15T01:47:52;8.40;99.90
42841;DHT22;28491;46.898;7.660;2023-05-15T01:50:19;8.40;99.90
42841;DHT22;28491;46.898;7.660;2023-05-15T01:52:49;8.50;99.90
42841;DHT22;28491;46.898;7.660;2023-05-15T01:55:17;8.50;99.90
42841;DHT22;28491;46.898;7.660;2023-05-15T01:57:46;8.50;99.90
42841;DHT22;28491;46.898;7.660;2023-05-15T02:00:12;8.50;99.90
42841;DHT22;28491;46.898;7.660;2023-05-15T02:02:39;8.50;99.90
42841;DHT22;28491;46.898;7.660;2023-05-15T02:05:06;8.50;99.90
42841;DHT22;28491;46.898;7.660;2023-05-15T02:07:32;8.50;99.90
42841;DHT22;28491;46.898;7.660;2023-05-15T02:09:58;8.50;99.90
42841;DHT22;28491;46.898;7.660;2023-05-15T02:12:26;8.60;99.90
42841;DHT22;28491;46.898;7.660;2023-05-15T02:14:52;8.60;99.90
42841;DHT22;28491;46.898;7.660;2023-05-15T02:17:21;8.50;99.90
42841;DHT22;28491;46.898;7.660;2023-05-15T02:19:48;8.60;99.90
42841;DHT22;28491;46.898;7.660;2023-05-15T02:22:14;8.50;99.90
42841;DHT22;28491;46.898;7.660;2023-05-15T02:24:39;8.50;99.90
42841;DHT22;28491;46.898;7.660;2023-05-15T02:32:55;8.40;99.90
42841;DHT22;28491;46.898;7.660;2023-05-15T02:38:00;8.40;99.90
42841;DHT22;28491;46.898;7.660;2023-05-15T02:40:27;8.50;99.90
42841;DHT22;28491;46.898;7.660;2023-05-15T02:42:55;8.40;99.90
42841;DHT22;28491;46.898;7.660;2023-05-15T02:45:23;8.30;99.90
42841;DHT22;28491;46.898;7.660;2023-05-15T02:47:49;8.40;99.90
42841;DHT22;28491;46.898;7.660;2023-05-15T02:50:16;8.40;99.90
42841;DHT22;28491;46.898;7.660;2023-05-15T02:52:41;8.40;99.90
42841;DHT22;28491;46.898;7.660;2023-05-15T02:55:08;8.40;99.90
42841;DHT22;28491;46.898;7.660;2023-05-15T02:57:33;8.40;99.90
42841;DHT22;28491;46.898;7.660;2023-05-15T02:59:59;8.40;99.90
42841;DHT22;28491;46.898;7.660;2023-05-15T03:02:25;8.40;99.90
42841;DHT22;28491;46.898;7.660;2023-05-15T03:04:50;8.40;99.90
42841;DHT22;28491;46.898;7.660;2023-05-15T03:07:16;8.40;99.90
42841;DHT22;28491;46.898;7.660;2023-05-15T03:09:41;8.40;99.90
42841;DHT22;28491;46.898;7.660;2023-05-15T03:12:08;8.40;99.90
42841;DHT22;28491;46.898;7.660;2023-05-15T03:14:34;8.40;99.90
42841;DHT22;28491;46.898;7.660;2023-05-15T03:16:59;8.40;99.90
42841;DHT22;28491;46.898;7.660;2023-05-15T03:19:25;8.40;99.90
42841;DHT22;28491;46.898;7.660;2023-05-15T03:21:51;8.40;99.90
42841;DHT22;28491;46.898;7.660;2023-05-15T03:24:16;8.50;99.90
42841;DHT22;28491;46.898;7.660;2023-05-15T03:26:42;8.50;99.90
42841;DHT22;28491;46.898;7.660;2023-05-15T03:29:09;8.40;99.90
42841;DHT22;28491;46.898;7.660;2023-05-15T03:31:35;8.40;99.90
42841;DHT22;28491;46.898;7.660;2023-05-15T03:34:00;8.50;99.90
42841;DHT22;28491;46.898;7.660;2023-05-15T03:36:26;8.40;99.90
42841;DHT22;28491;46.898;7.660;2023-05-15T03:38:51;8.50;99.90
42841;DHT22;28491;46.898;7.660;2023-05-15T03:41:17;8.40;99.90
42841;DHT22;28491;46.898;7.660;2023-05-15T03:43:42;8.50;99.90
42841;DHT22;28491;46.898;7.660;2023-05-15T03:46:08;8.50;99.90
42841;DHT22;28491;46.898;7.660;2023-05-15T03:48:33;8.50;99.90
42841;DHT22;28491;46.898;7.660;2023-05-15T03:50:59;8.50;99.90
42841;DHT22;28491;46.898;7.660;2023-05-15T03:53:24;8.50;99.90
42841;DHT22;28491;46.898;7.660;2023-05-15T03:55:50;8.50;99.90
42841;DHT22;28491;46.898;7.660;2023-05-15T03:58:15;8.50;99.90
42841;DHT22;28491;46.898;7.660;2023-05-15T04:00:41;8.60;99.90
42841;DHT22;28491;46.898;7.660;2023-05-15T04:03:07;8.60;99.90
42841;DHT22;28491;46.898;7.660;2023-05-15T04:05:32;8.50;99.90
42841;DHT22;28491;46.898;7.660;2023-05-15T04:07:58;8.50;99.90
42841;DHT22;28491;46.898;7.660;2023-05-15T04:10:23;8.50;99.90
42841;DHT22;28491;46.898;7.660;2023-05-15T04:12:49;8.50;99.90
42841;DHT22;28491;46.898;7.660;2023-05-15T04:17:46;8.50;99.90
42841;DHT22;28491;46.898;7.660;2023-05-15T04:20:13;8.50;99.90
42841;DHT22;28491;46.898;7.660;2023-05-15T04:22:40;8.60;99.90
42841;DHT22;28491;46.898;7.660;2023-05-15T04:25:06;8.50;99.90
42841;DHT22;28491;46.898;7.660;2023-05-15T04:27:32;8.50;99.90
42841;DHT22;28491;46.898;7.660;2023-05-15T04:29:58;8.50;99.90
42841;DHT22;28491;46.898;7.660;2023-05-15T04:32:24;8.50;99.90
42841;DHT22;28491;46.898;7.660;2023-05-15T04:34:49;8.60;99.90
42841;DHT22;28491;46.898;7.660;2023-05-15T04:37:15;8.60;99.90
42841;DHT22;28491;46.898;7.660;2023-05-15T04:39:40;8.50;99.90
42841;DHT22;28491;46.898;7.660;2023-05-15T04:42:06;8.60;99.90
42841;DHT22;28491;46.898;7.660;2023-05-15T04:44:31;8.60;99.90
42841;DHT22;28491;46.898;7.660;2023-05-15T04:46:58;8.60;99.90
42841;DHT22;28491;46.898;7.660;2023-05-15T04:49:23;8.70;99.90
42841;DHT22;28491;46.898;7.660;2023-05-15T04:51:48;8.80;99.90
42841;DHT22;28491;46.898;7.660;2023-05-15T04:54:14;8.80;99.90
42841;DHT22;28491;46.898;7.660;2023-05-15T04:56:40;8.80;99.90
42841;DHT22;28491;46.898;7.660;2023-05-15T04:59:05;8.80;99.90
42841;DHT22;28491;46.898;7.660;2023-05-15T05:01:31;8.90;99.90
42841;DHT22;28491;46.898;7.660;2023-05-15T05:03:56;9.00;99.90
42841;DHT22;28491;46.898;7.660;2023-05-15T05:06:22;9.00;99.90
42841;DHT22;28491;46.898;7.660;2023-05-15T05:08:48;9.00;99.90
42841;DHT22;28491;46.898;7.660;2023-05-15T05:11:13;9.10;99.90
42841;DHT22;28491;46.898;7.660;2023-05-15T05:13:39;9.20;99.90
42841;DHT22;28491;46.898;7.660;2023-05-15T05:16:05;9.30;99.90
42841;DHT22;28491;46.898;7.660;2023-05-15T05:18:31;9.30;99.90
42841;DHT22;28491;46.898;7.660;2023-05-15T05:21:00;9.20;99.90
42841;DHT22;28491;46.898;7.660;2023-05-15T05:23:26;9.20;99.90
42841;DHT22;28491;46.898;7.660;2023-05-15T05:25:52;9.10;99.90
42841;DHT22;28491;46.898;7.660;2023-05-15T05:28:17;9.20;99.90
42841;DHT22;28491;46.898;7.660;2023-05-15T05:30:46;9.20;99.90
42841;DHT22;28491;46.898;7.660;2023-05-15T05:33:12;9.20;99.90
42841;DHT22;28491;46.898;7.660;2023-05-15T05:35:37;9.20;99.90
42841;DHT22;28491;46.898;7.660;2023-05-15T05:38:03;9.20;99.90
42841;DHT22;28491;46.898;7.660;2023-05-15T05:40:28;9.20;99.90
42841;DHT22;28491;46.898;7.660;2023-05-15T05:42:57;9.30;99.90
42841;DHT22;28491;46.898;7.660;2023-05-15T05:45:22;9.40;99.90
42841;DHT22;28491;46.898;7.660;2023-05-15T05:47:48;9.70;99.90
42841;DHT22;28491;46.898;7.660;2023-05-15T05:50:13;10.30;99.90
42841;DHT22;28491;46.898;7.660;2023-05-15T05:52:39;11.00;99.10
42841;DHT22;28491;46.898;7.660;2023-05-15T05:55:05;11.50;96.30
42841;DHT22;28491;46.898;7.660;2023-05-15T05:57:31;11.80;78.30
42841;DHT22;28491;46.898;7.660;2023-05-15T05:59:56;11.70;73.00
42841;DHT22;28491;46.898;7.660;2023-05-15T06:02:22;11.80;80.90
42841;DHT22;28491;46.898;7.660;2023-05-15T06:04:47;12.10;82.60
42841;DHT22;28491;46.898;7.660;2023-05-15T06:07:13;12.50;70.90
42841;DHT22;28491;46.898;7.660;2023-05-15T06:09:38;12.90;66.20
42841;DHT22;28491;46.898;7.660;2023-05-15T06:12:04;12.80;67.00
42841;DHT22;28491;46.898;7.660;2023-05-15T06:14:30;12.40;62.20
42841;DHT22;28491;46.898;7.660;2023-05-15T06:16:56;12.00;64.50
42841;DHT22;28491;46.898;7.660;2023-05-15T06:19:21;11.60;67.10
42841;DHT22;28491;46.898;7.660;2023-05-15T06:21:47;11.40;72.50
42841;DHT22;28491;46.898;7.660;2023-05-15T06:24:13;11.20;78.00
42841;DHT22;28491;46.898;7.660;2023-05-15T06:26:38;11.10;81.10
42841;DHT22;28491;46.898;7.660;2023-05-15T06:29:04;10.90;82.20
42841;DHT22;28491;46.898;7.660;2023-05-15T06:31:30;10.80;80.20
42841;DHT22;28491;46.898;7.660;2023-05-15T06:33:55;10.70;81.60
42841;DHT22;28491;46.898;7.660;2023-05-15T06:36:21;10.70;85.60
42841;DHT22;28491;46.898;7.660;2023-05-15T06:38:46;10.80;93.30
42841;DHT22;28491;46.898;7.660;2023-05-15T06:41:12;10.80;93.40
42841;DHT22;28491;46.898;7.660;2023-05-15T06:43:37;10.80;92.50
42841;DHT22;28491;46.898;7.660;2023-05-15T06:46:03;10.80;92.00
42841;DHT22;28491;46.898;7.660;2023-05-15T06:48:28;10.90;88.10
42841;DHT22;28491;46.898;7.660;2023-05-15T06:50:54;11.20;87.50
42841;DHT22;28491;46.898;7.660;2023-05-15T06:53:20;11.60;86.40
42841;DHT22;28491;46.898;7.660;2023-05-15T06:55:45;11.80;84.90
42841;DHT22;28491;46.898;7.660;2023-05-15T06:58:11;11.80;74.70
42841;DHT22;28491;46.898;7.660;2023-05-15T07:00:36;11.90;77.80
42841;DHT22;28491;46.898;7.660;2023-05-15T07:03:02;12.00;74.00
42841;DHT22;28491;46.898;7.660;2023-05-15T07:05:28;12.10;77.40
42841;DHT22;28491;46.898;7.660;2023-05-15T07:07:53;12.30;77.60
42841;DHT22;28491;46.898;7.660;2023-05-15T07:10:19;12.50;75.30
42841;DHT22;28491;46.898;7.660;2023-05-15T07:12:44;12.50;69.40
42841;DHT22;28491;46.898;7.660;2023-05-15T07:15:10;12.70;68.60
42841;DHT22;28491;46.898;7.660;2023-05-15T07:17:36;12.70;68.40
42841;DHT22;28491;46.898;7.660;2023-05-15T07:20:01;13.00;65.50
42841;DHT22;28491;46.898;7.660;2023-05-15T07:22:30;14.30;67.00
42841;DHT22;28491;46.898;7.660;2023-05-15T07:24:55;15.10;31.20
42841;DHT22;28491;46.898;7.660;2023-05-15T07:27:21;15.70;12.00
42841;DHT22;28491;46.898;7.660;2023-05-15T07:29:46;15.70;18.30
42841;DHT22;28491;46.898;7.660;2023-05-15T07:32:12;16.20;2.10
42841;DHT22;28491;46.898;7.660;2023-05-15T07:34:37;16.30;2.90
42841;DHT22;28491;46.898;7.660;2023-05-15T07:37:03;15.70;1.00
42841;DHT22;28491;46.898;7.660;2023-05-15T07:39:29;15.10;7.00
42841;DHT22;28491;46.898;7.660;2023-05-15T07:41:54;14.70;28.70
42841;DHT22;28491;46.898;7.660;2023-05-15T07:44:20;14.40;17.10
42841;DHT22;28491;46.898;7.660;2023-05-15T07:46:46;14.10;32.80
42841;DHT22;28491;46.898;7.660;2023-05-15T07:49:11;13.80;21.00
42841;DHT22;28491;46.898;7.660;2023-05-15T07:51:37;13.70;40.60
42841;DHT22;28491;46.898;7.660;2023-05-15T07:54:02;13.50;39.40
42841;DHT22;28491;46.898;7.660;2023-05-15T07:56:28;13.50;48.20
42841;DHT22;28491;46.898;7.660;2023-05-15T07:58:54;13.40;45.00
42841;DHT22;28491;46.898;7.660;2023-05-15T08:01:19;13.50;59.20
42841;DHT22;28491;46.898;7.660;2023-05-15T08:03:45;13.50;60.20
42841;DHT22;28491;46.898;7.660;2023-05-15T08:06:10;13.40;48.00
42841;DHT22;28491;46.898;7.660;2023-05-15T08:08:36;13.20;42.10
42841;DHT22;28491;46.898;7.660;2023-05-15T08:11:02;13.30;34.50
42841;DHT22;28491;46.898;7.660;2023-05-15T08:13:27;13.40;44.70
42841;DHT22;28491;46.898;7.660;2023-05-15T08:15:53;13.50;18.50
42841;DHT22;28491;46.898;7.660;2023-05-15T08:18:18;13.70;31.30
42841;DHT22;28491;46.898;7.660;2023-05-15T08:20:44;13.80;16.40
42841;DHT22;28491;46.898;7.660;2023-05-15T08:23:10;14.00;14.10
42841;DHT22;28491;46.898;7.660;2023-05-15T08:25:35;14.10;23.70
42841;DHT22;28491;46.898;7.660;2023-05-15T08:28:01;14.30;40.20
42841;DHT22;28491;46.898;7.660;2023-05-15T08:30:27;14.30;11.60
42841;DHT22;28491;46.898;7.660;2023-05-15T08:32:53;14.10;1.00
42841;DHT22;28491;46.898;7.660;2023-05-15T08:35:18;14.30;20.60
42841;DHT22;28491;46.898;7.660;2023-05-15T08:37:43;14.80;27.50
42841;DHT22;28491;46.898;7.660;2023-05-15T08:40:09;15.50;1.00
42841;DHT22;28491;46.898;7.660;2023-05-15T08:42:47;16.70;1.00
42841;DHT22;28491;46.898;7.660;2023-05-15T08:45:14;17.60;1.00
42841;DHT22;28491;46.898;7.660;2023-05-15T08:47:41;18.60;1.00
42841;DHT22;28491;46.898;7.660;2023-05-15T08:50:14;19.10;1.00
42841;DHT22;28491;46.898;7.660;2023-05-15T08:52:41;20.20;1.00
42841;DHT22;28491;46.898;7.660;2023-05-15T08:55:08;20.90;1.00
42841;DHT22;28491;46.898;7.660;2023-05-15T08:57:36;20.80;1.00
42841;DHT22;28491;46.898;7.660;2023-05-15T09:00:03;19.70;1.00
42841;DHT22;28491;46.898;7.660;2023-05-15T09:02:32;19.10;1.00
42841;DHT22;28491;46.898;7.660;2023-05-15T09:04:58;18.40;1.00
42841;DHT22;28491;46.898;7.660;2023-05-15T09:07:24;17.80;1.00
42841;DHT22;28491;46.898;7.660;2023-05-15T09:09:50;17.10;1.00
42841;DHT22;28491;46.898;7.660;2023-05-15T09:12:16;16.50;1.00
42841;DHT22;28491;46.898;7.660;2023-05-15T09:14:42;16.10;1.00
42841;DHT22;28491;46.898;7.660;2023-05-15T09:17:11;15.60;1.00
42841;DHT22;28491;46.898;7.660;2023-05-15T09:19:37;15.20;1.00
42841;DHT22;28491;46.898;7.660;2023-05-15T09:22:20;15.00;1.00
42841;DHT22;28491;46.898;7.660;2023-05-15T09:24:49;14.90;1.00
42841;DHT22;28491;46.898;7.660;2023-05-15T09:27:16;14.70;17.60
42841;DHT22;28491;46.898;7.660;2023-05-15T09:29:42;14.80;15.40
42841;DHT22;28491;46.898;7.660;2023-05-15T09:32:09;15.00;8.80
42841;DHT22;28491;46.898;7.660;2023-05-15T09:34:37;15.50;1.00
42841;DHT22;28491;46.898;7.660;2023-05-15T09:37:04;15.70;1.00
42841;DHT22;28491;46.898;7.660;2023-05-15T09:39:30;15.60;1.00
42841;DHT22;28491;46.898;7.660;2023-05-15T09:42:06;15.80;1.00
42841;DHT22;28491;46.898;7.660;2023-05-15T09:44:32;15.70;1.00
42841;DHT22;28491;46.898;7.660;2023-05-15T09:46:58;15.90;1.00
42841;DHT22;28491;46.898;7.660;2023-05-15T09:49:26;16.70;1.00
42841;DHT22;28491;46.898;7.660;2023-05-15T09:51:51;16.90;1.00
42841;DHT22;28491;46.898;7.660;2023-05-15T09:54:22;17.10;1.00
42841;DHT22;28491;46.898;7.660;2023-05-15T09:56:48;16.70;1.00
42841;DHT22;28491;46.898;7.660;2023-05-15T09:59:17;17.60;1.00
42841;DHT22;28491;46.898;7.660;2023-05-15T10:01:44;17.70;1.00
42841;DHT22;28491;46.898;7.660;2023-05-15T10:04:11;17.40;1.00
42841;DHT22;28491;46.898;7.660;2023-05-15T10:06:47;17.00;1.00
42841;DHT22;28491;46.898;7.660;2023-05-15T10:09:13;16.70;1.00
42841;DHT22;28491;46.898;7.660;2023-05-15T10:11:41;16.40;1.00
42841;DHT22;28491;46.898;7.660;2023-05-15T10:14:12;15.40;1.00
42841;DHT22;28491;46.898;7.660;2023-05-15T10:16:39;15.30;1.00
42841;DHT22;28491;46.898;7.660;2023-05-15T10:19:06;15.30;1.00
42841;DHT22;28491;46.898;7.660;2023-05-15T10:21:35;15.40;2.70
42841;DHT22;28491;46.898;7.660;2023-05-15T10:24:01;15.90;9.70
42841;DHT22;28491;46.898;7.660;2023-05-15T10:26:37;16.70;6.90
42841;DHT22;28491;46.898;7.660;2023-05-15T10:29:18;16.80;1.00
42841;DHT22;28491;46.898;7.660;2023-05-15T10:31:46;16.40;1.00
42841;DHT22;28491;46.898;7.660;2023-05-15T10:34:13;16.10;2.20
42841;DHT22;28491;46.898;7.660;2023-05-15T10:36:41;15.80;1.00
42841;DHT22;28491;46.898;7.660;2023-05-15T10:39:07;15.50;7.90
42841;DHT22;28491;46.898;7.660;2023-05-15T10:41:35;15.10;1.00
42841;DHT22;28491;46.898;7.660;2023-05-15T10:44:02;14.70;7.60
42841;DHT22;28491;46.898;7.660;2023-05-15T10:46:29;14.30;22.50
42841;DHT22;28491;46.898;7.660;2023-05-15T10:48:55;13.60;12.00
42841;DHT22;28491;46.898;7.660;2023-05-15T10:51:27;12.80;26.10
42841;DHT22;28491;46.898;7.660;2023-05-15T10:53:54;11.70;50.10
42841;DHT22;28491;46.898;7.660;2023-05-15T10:56:20;11.20;64.10
42841;DHT22;28491;46.898;7.660;2023-05-15T10:58:50;10.70;68.10
42841;DHT22;28491;46.898;7.660;2023-05-15T11:01:29;10.50;79.30
42841;DHT22;28491;46.898;7.660;2023-05-15T11:04:18;10.20;84.80
42841;DHT22;28491;46.898;7.660;2023-05-15T11:06:48;10.20;93.80
42841;DHT22;28491;46.898;7.660;2023-05-15T11:14:17;10.10;96.90
42841;DHT22;28491;46.898;7.660;2023-05-15T11:24:54;10.40;98.40
42841;DHT22;28491;46.898;7.660;2023-05-15T11:27:24;10.30;97.60
42841;DHT22;28491;46.898;7.660;2023-05-15T11:30:13;10.50;98.80
42841;DHT22;28491;46.898;7.660;2023-05-15T11:40:48;10.90;99.80
42841;DHT22;28491;46.898;7.660;2023-05-15T11:43:24;11.00;97.60
42841;DHT22;28491;46.898;7.660;2023-05-15T11:48:17;11.30;96.20
42841;DHT22;28491;46.898;7.660;2023-05-15T11:50:44;11.60;95.70
42841;DHT22;28491;46.898;7.660;2023-05-15T11:53:10;11.80;93.90
42841;DHT22;28491;46.898;7.660;2023-05-15T11:55:38;12.00;90.40
42841;DHT22;28491;46.898;7.660;2023-05-15T11:58:05;12.10;79.30
42841;DHT22;28491;46.898;7.660;2023-05-15T12:00:35;12.20;75.30
42841;DHT22;28491;46.898;7.660;2023-05-15T12:03:00;12.50;79.60
42841;DHT22;28491;46.898;7.660;2023-05-15T12:05:28;12.80;68.00
42841;DHT22;28491;46.898;7.660;2023-05-15T12:07:54;13.10;65.40
42841;DHT22;28491;46.898;7.660;2023-05-15T12:10:20;13.30;64.00
42841;DHT22;28491;46.898;7.660;2023-05-15T12:12:45;13.60;37.50
42841;DHT22;28491;46.898;7.660;2023-05-15T12:15:12;13.90;65.20
42841;DHT22;28491;46.898;7.660;2023-05-15T12:17:39;13.90;57.20
42841;DHT22;28491;46.898;7.660;2023-05-15T12:20:10;14.00;44.20
42841;DHT22;28491;46.898;7.660;2023-05-15T12:22:39;14.20;60.40
42841;DHT22;28491;46.898;7.660;2023-05-15T12:25:05;14.50;60.50
42841;DHT22;28491;46.898;7.660;2023-05-15T12:27:32;15.00;60.20
42841;DHT22;28491;46.898;7.660;2023-05-15T12:29:58;15.50;55.60
42841;DHT22;28491;46.898;7.660;2023-05-15T12:32:24;15.50;40.70
42841;DHT22;28491;46.898;7.660;2023-05-15T12:34:51;15.80;44.30
42841;DHT22;28491;46.898;7.660;2023-05-15T12:37:20;15.70;14.00
42841;DHT22;28491;46.898;7.660;2023-05-15T12:39:53;16.10;27.50
42841;DHT22;28491;46.898;7.660;2023-05-15T12:42:19;16.50;21.40
42841;DHT22;28491;46.898;7.660;2023-05-15T12:44:45;16.40;1.00
42841;DHT22;28491;46.898;7.660;2023-05-15T12:47:14;16.40;15.90
42841;DHT22;28491;46.898;7.660;2023-05-15T12:49:40;16.20;20.70
42841;DHT22;28491;46.898;7.660;2023-05-15T12:52:09;15.80;1.00
42841;DHT22;28491;46.898;7.660;2023-05-15T12:54:38;14.80;1.00
42841;DHT22;28491;46.898;7.660;2023-05-15T12:57:06;13.60;1.00
42841;DHT22;28491;46.898;7.660;2023-05-15T12:59:32;13.10;9.20
42841;DHT22;28491;46.898;7.660;2023-05-15T13:01:58;12.60;14.50
42841;DHT22;28491;46.898;7.660;2023-05-15T13:04:23;12.60;62.90
42841;DHT22;28491;46.898;7.660;2023-05-15T13:06:49;12.30;46.30
42841;DHT22;28491;46.898;7.660;2023-05-15T13:09:21;12.00;61.40
42841;DHT22;28491;46.898;7.660;2023-05-15T13:11:47;11.90;62.40
42841;DHT22;28491;46.898;7.660;2023-05-15T13:14:12;11.80;64.50
42841;DHT22;28491;46.898;7.660;2023-05-15T13:16:43;11.60;61.40
42841;DHT22;28491;46.898;7.660;2023-05-15T13:19:09;11.50;61.30
42841;DHT22;28491;46.898;7.660;2023-05-15T13:21:34;11.40;63.20
42841;DHT22;28491;46.898;7.660;2023-05-15T13:24:00;11.60;65.40
42841;DHT22;28491;46.898;7.660;2023-05-15T13:26:26;11.60;63.80
42841;DHT22;28491;46.898;7.660;2023-05-15T13:28:51;11.70;62.90
42841;DHT22;28491;46.898;7.660;2023-05-15T13:31:17;11.80;64.70
42841;DHT22;28491;46.898;7.660;2023-05-15T13:33:42;11.90;65.00
42841;DHT22;28491;46.898;7.660;2023-05-15T13:36:08;12.00;67.50
42841;DHT22;28491;46.898;7.660;2023-05-15T13:38:33;12.00;70.50
42841;DHT22;28491;46.898;7.660;2023-05-15T13:40:59;12.00;75.90
42841;DHT22;28491;46.898;7.660;2023-05-15T13:43:25;12.10;78.40
42841;DHT22;28491;46.898;7.660;2023-05-15T13:45:50;11.90;68.60
42841;DHT22;28491;46.898;7.660;2023-05-15T13:48:16;11.90;67.50
42841;DHT22;28491;46.898;7.660;2023-05-15T13:50:41;11.70;68.00
42841;DHT22;28491;46.898;7.660;2023-05-15T13:53:07;11.60;73.50
42841;DHT22;28491;46.898;7.660;2023-05-15T13:55:33;11.50;74.10
42841;DHT22;28491;46.898;7.660;2023-05-15T13:57:59;11.30;70.10
42841;DHT22;28491;46.898;7.660;2023-05-15T14:00:25;11.40;78.20
42841;DHT22;28491;46.898;7.660;2023-05-15T14:02:50;11.20;73.70
42841;DHT22;28491;46.898;7.660;2023-05-15T14:05:16;11.10;73.40
42841;DHT22;28491;46.898;7.660;2023-05-15T14:07:42;11.10;80.60
42841;DHT22;28491;46.898;7.660;2023-05-15T14:10:08;11.20;87.20
42841;DHT22;28491;46.898;7.660;2023-05-15T14:12:35;11.30;87.40
42841;DHT22;28491;46.898;7.660;2023-05-15T14:15:01;11.20;86.30
42841;DHT22;28491;46.898;7.660;2023-05-15T14:17:27;11.10;88.40
42841;DHT22;28491;46.898;7.660;2023-05-15T14:19:53;11.00;84.30
42841;DHT22;28491;46.898;7.660;2023-05-15T14:22:18;10.90;83.20
42841;DHT22;28491;46.898;7.660;2023-05-15T14:24:44;10.90;82.60
42841;DHT22;28491;46.898;7.660;2023-05-15T14:27:10;10.90;83.10
42841;DHT22;28491;46.898;7.660;2023-05-15T14:29:35;10.90;82.70
42841;DHT22;28491;46.898;7.660;2023-05-15T14:32:01;11.00;85.40
42841;DHT22;28491;46.898;7.660;2023-05-15T14:34:28;11.10;88.20
42841;DHT22;28491;46.898;7.660;2023-05-15T14:36:53;11.30;89.00
42841;DHT22;28491;46.898;7.660;2023-05-15T14:39:19;11.30;87.30
42841;DHT22;28491;46.898;7.660;2023-05-15T14:41:45;11.40;84.70
42841;DHT22;28491;46.898;7.660;2023-05-15T14:44:10;11.40;82.90
42841;DHT22;28491;46.898;7.660;2023-05-15T14:46:36;11.40;85.10
42841;DHT22;28491;46.898;7.660;2023-05-15T14:49:02;11.40;90.00
42841;DHT22;28491;46.898;7.660;2023-05-15T14:51:28;11.50;90.30
42841;DHT22;28491;46.898;7.660;2023-05-15T14:53:53;11.50;77.30
42841;DHT22;28491;46.898;7.660;2023-05-15T14:56:19;11.60;76.30
42841;DHT22;28491;46.898;7.660;2023-05-15T14:58:45;11.90;80.00
42841;DHT22;28491;46.898;7.660;2023-05-15T15:01:11;12.20;85.80
42841;DHT22;28491;46.898;7.660;2023-05-15T15:03:36;12.50;88.50
42841;DHT22;28491;46.898;7.660;2023-05-15T15:06:02;12.80;88.00
42841;DHT22;28491;46.898;7.660;2023-05-15T15:08:28;13.00;84.60
42841;DHT22;28491;46.898;7.660;2023-05-15T15:10:54;13.10;77.70
42841;DHT22;28491;46.898;7.660;2023-05-15T15:13:19;13.20;77.60
42841;DHT22;28491;46.898;7.660;2023-05-15T15:15:45;13.30;76.50
42841;DHT22;28491;46.898;7.660;2023-05-15T15:18:11;13.40;74.10
42841;DHT22;28491;46.898;7.660;2023-05-15T15:20:36;13.40;74.20
42841;DHT22;28491;46.898;7.660;2023-05-15T15:23:02;13.50;77.80
42841;DHT22;28491;46.898;7.660;2023-05-15T15:25:28;13.50;74.20
42841;DHT22;28491;46.898;7.660;2023-05-15T15:27:54;13.50;77.70
42841;DHT22;28491;46.898;7.660;2023-05-15T15:30:20;13.40;70.60
42841;DHT22;28491;46.898;7.660;2023-05-15T15:32:45;13.30;74.70
42841;DHT22;28491;46.898;7.660;2023-05-15T15:35:11;13.20;76.60
42841;DHT22;28491;46.898;7.660;2023-05-15T15:37:37;13.20;74.10
42841;DHT22;28491;46.898;7.660;2023-05-15T15:40:04;13.10;77.50
42841;DHT22;28491;46.898;7.660;2023-05-15T15:42:32;13.10;78.70
42841;DHT22;28491;46.898;7.660;2023-05-15T15:44:58;13.00;81.70
42841;DHT22;28491;46.898;7.660;2023-05-15T15:47:24;13.00;81.40
42841;DHT22;28491;46.898;7.660;2023-05-15T15:49:50;12.90;80.70
42841;DHT22;28491;46.898;7.660;2023-05-15T15:52:16;12.80;82.30
42841;DHT22;28491;46.898;7.660;2023-05-15T15:54:42;12.80;84.00
42841;DHT22;28491;46.898;7.660;2023-05-15T15:57:12;12.70;82.60
42841;DHT22;28491;46.898;7.660;2023-05-15T15:59:38;12.70;85.70
42841;DHT22;28491;46.898;7.660;2023-05-15T16:02:05;12.60;85.70
42841;DHT22;28491;46.898;7.660;2023-05-15T16:04:31;12.50;85.40
42841;DHT22;28491;46.898;7.660;2023-05-15T16:06:57;12.50;86.50
42841;DHT22;28491;46.898;7.660;2023-05-15T16:09:22;12.50;84.00
42841;DHT22;28491;46.898;7.660;2023-05-15T16:11:48;12.40;79.30
42841;DHT22;28491;46.898;7.660;2023-05-15T16:14:13;12.40;82.60
42841;DHT22;28491;46.898;7.660;2023-05-15T16:16:39;12.20;76.90
42841;DHT22;28491;46.898;7.660;2023-05-15T16:19:05;12.20;82.90